1877 NOT_NAMED (1877131S07090)


IBTrACS version v04r00. Visit IBTrACS website for data access.
Please direct all questions to the IBTrACS Q and A forum

Storm track - Intensity - Wind Radii - Intensity Data - Source Data - All data

Summary Information

Storm ID 1877131S07090
Start May 11 06Z
End May 17 06Z
ATCF IDs
Track status Best track data.

Storm track plot

Map of storm track

Intensity plots

No Intensity information for this storm


Radial wind information

No radial wind information for this storm


Position and Intensity Table

BASIN ISO_TIME_________ NATURE LAT LON
degrees north degrees east
SI 1877-05-11 06:00:00 NR -6.90 89.80
SI 09:00:00 NR -7.08 89.51
SI 12:00:00 NR -7.26 89.22
SI 15:00:00 NR -7.44 88.94
SI 18:00:00 NR -7.61 88.66
SI 21:00:00 NR -7.78 88.40
SI 1877-05-12 00:00:00 NR -7.93 88.15
SI 03:00:00 NR -8.07 87.91
SI 06:00:00 NR -8.20 87.70
SI 09:00:00 NR -8.31 87.51
SI 12:00:00 NR -8.41 87.33
SI 15:00:00 NR -8.50 87.17
SI 18:00:00 NR -8.59 87.02
SI 21:00:00 NR -8.67 86.89
SI 1877-05-13 00:00:00 NR -8.74 86.76
SI 03:00:00 NR -8.82 86.63
SI 06:00:00 NR -8.90 86.50
SI 09:00:00 NR -9.00 86.36
SI 12:00:00 NR -9.09 86.22
SI 15:00:00 NR -9.19 86.08
SI 18:00:00 NR -9.29 85.94
SI 21:00:00 NR -9.39 85.81
SI 1877-05-14 00:00:00 NR -9.50 85.67
SI 03:00:00 NR -9.60 85.54
SI 06:00:00 NR -9.70 85.40
SI 09:00:00 NR -9.80 85.26
SI 12:00:00 NR -9.90 85.12
SI 15:00:00 NR -10.00 84.99
SI 18:00:00 NR -10.10 84.85
SI 21:00:00 NR -10.20 84.71
SI 1877-05-15 00:00:00 NR -10.30 84.57
SI 03:00:00 NR -10.40 84.44
SI 06:00:00 NR -10.50 84.30
SI 09:00:00 NR -10.58 84.18
SI 12:00:00 NR -10.66 84.06
SI 15:00:00 NR -10.74 83.95
SI 18:00:00 NR -10.83 83.82
SI 21:00:00 NR -10.93 83.69
SI 1877-05-16 00:00:00 NR -11.03 83.55
SI 03:00:00 NR -11.16 83.38
SI 06:00:00 NR -11.30 83.20
SI 09:00:00 NR -11.46 82.99
SI 12:00:00 NR -11.65 82.76
SI 15:00:00 NR -11.85 82.52
SI 18:00:00 NR -12.06 82.25
SI 21:00:00 NR -12.29 81.98
SI 1877-05-17 00:00:00 NR -12.52 81.69
SI 03:00:00 NR -12.76 81.40
SI 06:00:00 NR -13.00 81.10

Source Information

Agency Information
USA
TOKYO
CMA
HKO
NEWDELHI
REUNION WMO-Best-Tracks.txt:Line=1140:xxxx877168
BOM
NADI
WELLINGTON
DS824
TD9636
TD9635
NEUMANN
MLC

All available IBTrACS Data

SEASON BASIN SUBBASIN ISO_TIME_________ NATURE LAT LON DIST2LAND LANDFALL IFLAG USA SSHS REUNION LAT REUNION LON REUNION TYPE REUNION TNUM STORM SPEED STORM DIR
Year degrees north degrees east km km 1 degrees north degrees east 1 kts degrees
1877 SI MM 1877-05-11 06:00:00 NR -6.90 89.80 1165 1165 _____O________ -1 -6.90 89.80 99 9.90 7 237
1877 SI MM 09:00:00 NR -7.08 89.51 1205 1205 _____P________ -1 -7.08 89.51 99 7 238
1877 SI MM 12:00:00 NR -7.26 89.22 1245 1245 _____P________ -1 -7.26 89.22 99 7 238
1877 SI MM 15:00:00 NR -7.44 88.94 1279 1279 _____P________ -1 -7.44 88.94 99 7 238
1877 SI MM 18:00:00 NR -7.61 88.66 1310 1310 _____P________ -1 -7.61 88.66 99 6 238
1877 SI MM 21:00:00 NR -7.78 88.40 1350 1350 _____P________ -1 -7.78 88.40 99 6 238
1877 SI MM 1877-05-12 00:00:00 NR -7.93 88.15 1384 1384 _____P________ -1 -7.93 88.15 99 6 238
1877 SI MM 03:00:00 NR -8.07 87.91 1414 1414 _____P________ -1 -8.07 87.91 99 5 239
1877 SI MM 06:00:00 NR -8.20 87.70 1439 1439 _____O________ -1 -8.20 87.70 99 9.90 5 239
1877 SI MM 09:00:00 NR -8.31 87.51 1463 1463 _____P________ -1 -8.31 87.51 99 4 240
1877 SI MM 12:00:00 NR -8.41 87.33 1488 1488 _____P________ -1 -8.41 87.33 99 4 240
1877 SI MM 15:00:00 NR -8.50 87.17 1503 1503 _____P________ -1 -8.50 87.17 99 4 240
1877 SI MM 18:00:00 NR -8.59 87.02 1528 1528 _____P________ -1 -8.59 87.02 99 3 240
1877 SI MM 21:00:00 NR -8.67 86.89 1543 1543 _____P________ -1 -8.67 86.89 99 3 240
1877 SI MM 1877-05-13 00:00:00 NR -8.74 86.76 1553 1553 _____P________ -1 -8.74 86.76 99 3 239
1877 SI MM 03:00:00 NR -8.82 86.63 1577 1577 _____P________ -1 -8.82 86.63 99 3 238
1877 SI MM 06:00:00 NR -8.90 86.50 1592 1592 _____O________ -1 -8.90 86.50 99 9.90 3 237
1877 SI MM 09:00:00 NR -9.00 86.36 1607 1607 _____P________ -1 -9.00 86.36 99 3 236
1877 SI MM 12:00:00 NR -9.09 86.22 1632 1632 _____P________ -1 -9.09 86.22 99 3 234
1877 SI MM 15:00:00 NR -9.19 86.08 1647 1647 _____P________ -1 -9.19 86.08 99 3 234
1877 SI MM 18:00:00 NR -9.29 85.94 1672 1672 _____P________ -1 -9.29 85.94 99 3 233
1877 SI MM 21:00:00 NR -9.39 85.81 1687 1687 _____P________ -1 -9.39 85.81 99 3 233
1877 SI MM 1877-05-14 00:00:00 NR -9.50 85.67 1702 1702 _____P________ -1 -9.50 85.67 99 3 233
1877 SI MM 03:00:00 NR -9.60 85.54 1727 1727 _____P________ -1 -9.60 85.54 99 3 233
1877 SI MM 06:00:00 NR -9.70 85.40 1742 1742 _____O________ -1 -9.70 85.40 99 9.90 3 233
1877 SI MM 09:00:00 NR -9.80 85.26 1757 1757 _____P________ -1 -9.80 85.26 99 3 234
1877 SI MM 12:00:00 NR -9.90 85.12 1781 1781 _____P________ -1 -9.90 85.12 99 3 234
1877 SI MM 15:00:00 NR -10.00 84.99 1797 1797 _____P________ -1 -10.00 84.99 99 3 234
1877 SI MM 18:00:00 NR -10.10 84.85 1821 1821 _____P________ -1 -10.10 84.85 99 3 234
1877 SI MM 21:00:00 NR -10.20 84.71 1836 1836 _____P________ -1 -10.20 84.71 99 3 234
1877 SI MM 1877-05-15 00:00:00 NR -10.30 84.57 1851 1851 _____P________ -1 -10.30 84.57 99 3 234
1877 SI MM 03:00:00 NR -10.40 84.44 1874 1874 _____P________ -1 -10.40 84.44 99 3 234
1877 SI MM 06:00:00 NR -10.50 84.30 1882 1880 _____O________ -1 -10.50 84.30 99 9.90 3 234
1877 SI MM 09:00:00 NR -10.58 84.18 1891 1889 _____P________ -1 -10.58 84.18 99 3 235
1877 SI MM 12:00:00 NR -10.66 84.06 1900 1897 _____P________ -1 -10.66 84.06 99 3 235
1877 SI MM 15:00:00 NR -10.74 83.95 1895 1895 _____P________ -1 -10.74 83.95 99 3 235
1877 SI MM 18:00:00 NR -10.83 83.82 1904 1904 _____P________ -1 -10.83 83.82 99 3 234
1877 SI MM 21:00:00 NR -10.93 83.69 1913 1913 _____P________ -1 -10.93 83.69 99 3 233
1877 SI MM 1877-05-16 00:00:00 NR -11.03 83.55 1920 1920 _____P________ -1 -11.03 83.55 99 4 233
1877 SI MM 03:00:00 NR -11.16 83.38 1940 1939 _____P________ -1 -11.16 83.38 99 4 232
1877 SI MM 06:00:00 NR -11.30 83.20 1948 1946 _____O________ -1 -11.30 83.20 99 9.90 5 231
1877 SI MM 09:00:00 NR -11.46 82.99 1967 1966 _____P________ -1 -11.46 82.99 99 6 231
1877 SI MM 12:00:00 NR -11.65 82.76 1975 1975 _____P________ -1 -11.65 82.76 99 6 231
1877 SI MM 15:00:00 NR -11.85 82.52 1994 1994 _____P________ -1 -11.85 82.52 99 7 230
1877 SI MM 18:00:00 NR -12.06 82.25 2025 2023 _____P________ -1 -12.06 82.25 99 7 230
1877 SI MM 21:00:00 NR -12.29 81.98 2045 2044 _____P________ -1 -12.29 81.98 99 7 230
1877 SI MM 1877-05-17 00:00:00 NR -12.52 81.69 2065 2065 _____P________ -1 -12.52 81.69 99 7 230
1877 SI MM 03:00:00 NR -12.76 81.40 2097 2096 _____P________ -1 -12.76 81.40 99 8 230
1877 SI MM 06:00:00 NR -13.00 81.10 2118 _____O________ -1 -13.00 81.10 99 9.90 8 230